Fecha, hora, temperatura, viento dirección y velocidad, humedad y presión.

  • 23-08-2019 16:00:00 | 23.80°C | Noroeste |14.00 km/h | 30.00% | 856.00 hPa
  • 23-08-2019 15:00:00 | 23.80°C | Oeste |15.00 km/h | 26.00% | 856.20 hPa
  • 23-08-2019 14:00:00 | 23.20°C | Oeste |18.00 km/h | 21.00% | 856.40 hPa
  • 23-08-2019 13:00:00 | 22.60°C | Oeste |20.00 km/h | 20.00% | 856.50 hPa
  • 23-08-2019 12:00:00 | 22.20°C | Oeste |8.00 km/h | 26.00% | 856.50 hPa
  • 23-08-2019 11:00:00 | 22.20°C | Este |7.00 km/h | 29.00% | 856.50 hPa
  • 23-08-2019 10:00:00 | 18.30°C | Este |5.00 km/h | 34.00% | 856.40 hPa
  • 23-08-2019 09:00:00 | 10.50°C | Este |3.00 km/h | 65.00% | 856.50 hPa
  • 23-08-2019 08:00:00 | 7.90°C | Oeste |6.00 km/h | 62.00% | 856.30 hPa
  • 23-08-2019 07:00:00 | 7.80°C | Oeste |6.00 km/h | 60.00% | 856.10 hPa
  • 23-08-2019 06:00:00 | 7.20°C | Oeste |6.00 km/h | 60.00% | 856.20 hPa
  • 23-08-2019 05:00:00 | 7.80°C | Oeste |4.00 km/h | 55.00% | 856.30 hPa
  • 23-08-2019 04:00:00 | 8.70°C | Oeste |7.00 km/h | 51.00% | 856.30 hPa
  • 23-08-2019 03:00:00 | 8.10°C | Oeste |8.00 km/h | 59.00% | 856.60 hPa
  • 23-08-2019 02:00:00 | 9.00°C | Oeste |8.00 km/h | 61.00% | 856.80 hPa
  • 23-08-2019 01:00:00 | 8.60°C | Oeste |6.00 km/h | 63.00% | 856.90 hPa
  • 23-08-2019 00:00:00 | 9.40°C | Oeste |4.00 km/h | 66.00% | 857.10 hPa
  • 22-08-2019 23:00:00 | 10.80°C | Oeste |6.00 km/h | 69.00% | 857.20 hPa
  • 22-08-2019 22:00:00 | 13.20°C | Oeste |3.00 km/h | 74.00% | 857.00 hPa
  • 22-08-2019 21:00:00 | 16.40°C | Oeste |7.00 km/h | 72.00% | 857.00 hPa
  • 22-08-2019 20:00:00 | 19.60°C | Oeste |15.00 km/h | 56.00% | 856.80 hPa
  • 22-08-2019 19:00:00 | 21.30°C | Oeste |15.00 km/h | 43.00% | 856.80 hPa
  • 22-08-2019 18:00:00 | 21.50°C | Oeste |19.00 km/h | 41.00% | 857.00 hPa
  • 22-08-2019 17:00:00 | 22.00°C | Oeste |17.00 km/h | 44.00% | 857.00 hPa
    • diseño web asturias Información sobre el estado de las mareas, altura de la marejada, temperatura del agua y otros datos de Gijón en Asturias.

      Surf Gijón